createdAt,value
2018-06-29T00:00:22.769Z,2.10
2018-06-29T00:02:53.008Z,2.10
2018-06-29T00:05:23.276Z,2.57
2018-06-29T00:07:53.556Z,2.20
2018-06-29T00:10:26.292Z,2.47
2018-06-29T00:12:56.747Z,2.27
2018-06-29T00:15:26.897Z,2.43
2018-06-29T00:17:57.039Z,2.40
2018-06-29T00:20:27.169Z,2.10
2018-06-29T00:22:57.342Z,2.40
2018-06-29T00:25:27.500Z,2.67
2018-06-29T00:27:57.607Z,2.50
2018-06-29T00:30:27.800Z,2.50
2018-06-29T00:32:58.111Z,2.40
2018-06-29T00:35:28.477Z,2.57
2018-06-29T00:37:58.748Z,2.30
2018-06-29T00:40:29.131Z,2.30
2018-06-29T00:42:59.515Z,2.30
2018-06-29T00:45:29.838Z,2.80
2018-06-29T00:48:00.140Z,2.23
2018-06-29T00:50:30.398Z,2.30
2018-06-29T00:53:00.714Z,2.40
2018-06-29T00:55:31.009Z,2.00
2018-06-29T00:58:01.314Z,2.10
2018-06-29T01:00:31.518Z,2.00
2018-06-29T01:03:01.715Z,2.40
2018-06-29T01:05:32.009Z,2.07
2018-06-29T01:08:02.195Z,2.30
2018-06-29T01:10:32.380Z,2.30
2018-06-29T01:13:02.699Z,2.27
2018-06-29T01:15:33.037Z,2.33
2018-06-29T01:18:03.299Z,2.20
2018-06-29T01:20:33.599Z,2.27
2018-06-29T01:23:03.930Z,2.50
2018-06-29T01:25:33.712Z,2.30
2018-06-29T01:28:04.028Z,2.20
2018-06-29T01:30:34.398Z,2.50
2018-06-29T01:33:04.793Z,2.60
2018-06-29T01:35:35.118Z,2.50
2018-06-29T01:38:05.566Z,2.20
2018-06-29T01:40:35.907Z,2.53
2018-06-29T01:43:06.261Z,2.37
2018-06-29T01:45:36.611Z,2.57
2018-06-29T01:48:06.921Z,2.47
2018-06-29T01:50:37.405Z,2.63
2018-06-29T01:53:07.892Z,2.60
2018-06-29T01:55:38.222Z,2.57
2018-06-29T01:58:08.559Z,2.43
2018-06-29T02:00:38.872Z,2.20
2018-06-29T02:03:09.048Z,2.83
2018-06-29T02:05:39.463Z,2.87
2018-06-29T02:08:09.770Z,2.73
2018-06-29T02:10:40.157Z,2.40
2018-06-29T02:13:10.440Z,2.40
2018-06-29T02:15:40.633Z,2.50
2018-06-29T02:18:10.885Z,2.90
2018-06-29T02:20:41.375Z,2.50
2018-06-29T02:23:11.693Z,2.57
2018-06-29T02:25:41.973Z,2.37
2018-06-29T02:28:13.306Z,2.50
2018-06-29T02:30:43.625Z,2.10
2018-06-29T02:33:13.787Z,2.17
2018-06-29T02:35:43.987Z,2.20
2018-06-29T02:38:14.288Z,2.83
2018-06-29T02:40:44.612Z,2.80
2018-06-29T02:43:15.004Z,2.70
2018-06-29T02:45:45.210Z,2.60
2018-06-29T02:48:15.469Z,2.70
2018-06-29T02:50:45.652Z,2.50
2018-06-29T02:53:15.849Z,2.70
2018-06-29T02:55:45.987Z,2.43
2018-06-29T02:58:16.157Z,2.57
2018-06-29T03:00:46.586Z,2.40
2018-06-29T03:03:16.786Z,2.33
2018-06-29T03:05:47.054Z,2.20
2018-06-29T03:08:17.254Z,2.70
2018-06-29T03:10:47.435Z,3.13
2018-06-29T03:13:17.590Z,2.40
2018-06-29T03:15:47.821Z,2.50
2018-06-29T03:18:17.998Z,2.37
2018-06-29T03:20:48.164Z,2.47
2018-06-29T03:23:18.354Z,2.90
2018-06-29T03:25:48.515Z,2.87
2018-06-29T03:28:20.564Z,2.60
2018-06-29T03:30:51.278Z,2.87
2018-06-29T03:33:21.951Z,3.40
2018-06-29T03:35:52.515Z,3.10
2018-06-29T03:38:22.724Z,3.70
2018-06-29T03:40:53.059Z,3.03
2018-06-29T03:43:23.309Z,3.20
2018-06-29T03:45:53.784Z,3.00
2018-06-29T03:48:24.084Z,2.90
2018-06-29T03:50:54.371Z,3.00
2018-06-29T03:53:24.645Z,3.33
2018-06-29T03:55:55.043Z,3.13
2018-06-29T03:58:25.174Z,3.00
2018-06-29T04:01:02.274Z,3.03
2018-06-29T04:03:32.465Z,2.90
2018-06-29T04:06:02.703Z,3.10
2018-06-29T04:08:33.038Z,2.60
2018-06-29T04:11:03.208Z,2.90
2018-06-29T04:13:33.423Z,3.13
2018-06-29T04:16:03.636Z,3.07
2018-06-29T04:18:33.935Z,3.00
2018-06-29T04:21:04.191Z,3.00
2018-06-29T04:23:34.454Z,2.90
2018-06-29T04:26:04.605Z,3.10
2018-06-29T04:28:34.793Z,3.17
2018-06-29T04:31:04.994Z,3.40
2018-06-29T04:33:35.227Z,3.37
2018-06-29T04:36:05.489Z,3.20
2018-06-29T04:38:35.706Z,3.07
2018-06-29T04:41:05.966Z,3.50
2018-06-29T04:43:36.148Z,3.40
2018-06-29T04:46:06.383Z,3.20
2018-06-29T04:48:36.600Z,3.37
2018-06-29T04:51:06.845Z,3.30
2018-06-29T04:53:37.058Z,3.50
2018-06-29T04:56:07.386Z,4.17
2018-06-29T04:58:37.763Z,3.80
2018-06-29T05:01:08.073Z,3.93
2018-06-29T05:03:38.349Z,4.00
2018-06-29T05:06:08.654Z,3.70
2018-06-29T05:08:38.816Z,4.47
2018-06-29T05:11:09.090Z,3.80
2018-06-29T05:13:39.468Z,4.30
2018-06-29T05:16:09.701Z,4.13
2018-06-29T05:18:39.990Z,4.43
2018-06-29T05:21:10.286Z,4.60
2018-06-29T05:23:40.563Z,4.57
2018-06-29T05:26:10.908Z,4.40
2018-06-29T05:28:41.168Z,4.60
2018-06-29T05:31:11.540Z,4.70
2018-06-29T05:33:41.802Z,4.73
2018-06-29T05:36:12.128Z,4.53
2018-06-29T05:38:42.434Z,4.47
2018-06-29T05:41:12.687Z,4.60
2018-06-29T05:43:43.082Z,4.40
2018-06-29T05:46:13.381Z,4.43
2018-06-29T05:48:43.654Z,5.47
2018-06-29T05:51:13.992Z,4.80
2018-06-29T05:53:44.285Z,4.80
2018-06-29T05:56:14.617Z,4.20
2018-06-29T05:58:44.885Z,4.70
2018-06-29T06:01:15.506Z,4.90
2018-06-29T06:03:45.728Z,4.33
2018-06-29T06:06:16.091Z,4.47
2018-06-29T06:08:47.096Z,4.90
2018-06-29T06:11:16.850Z,4.50
2018-06-29T06:13:47.020Z,4.50
2018-06-29T06:16:17.363Z,4.60
2018-06-29T06:18:47.683Z,4.70
2018-06-29T06:21:17.991Z,4.97
2018-06-29T06:23:48.326Z,4.40
2018-06-29T06:26:18.635Z,4.97
2018-06-29T06:28:48.915Z,5.43
2018-06-29T06:31:19.224Z,4.90
2018-06-29T06:33:49.068Z,4.87
2018-06-29T06:36:19.351Z,4.50
2018-06-29T06:38:49.660Z,4.77
2018-06-29T06:41:20.007Z,5.00
2018-06-29T06:43:50.286Z,4.07
2018-06-29T06:46:20.548Z,4.30
2018-06-29T06:48:50.849Z,4.50
2018-06-29T06:51:21.171Z,4.40
2018-06-29T06:53:51.457Z,4.30
2018-06-29T06:56:21.784Z,4.50
2018-06-29T06:58:51.947Z,4.03
2018-06-29T07:01:23.116Z,4.43
2018-06-29T07:03:53.406Z,4.13
2018-06-29T07:06:23.666Z,4.33
2018-06-29T07:08:53.978Z,4.23
2018-06-29T07:11:23.809Z,4.17
2018-06-29T07:13:54.280Z,3.63
2018-06-29T07:16:24.489Z,3.90
2018-06-29T07:18:54.848Z,3.70
2018-06-29T07:21:25.125Z,3.20
2018-06-29T07:23:55.389Z,3.20
2018-06-29T07:26:25.672Z,3.30
2018-06-29T07:28:56.318Z,3.43
2018-06-29T07:31:26.673Z,3.67
2018-06-29T07:33:57.011Z,3.70
2018-06-29T07:36:27.367Z,3.53
2018-06-29T07:38:57.678Z,3.60
2018-06-29T07:41:28.048Z,3.08
2018-06-29T07:43:58.315Z,2.72
2018-06-29T07:46:28.607Z,3.35
2018-06-29T07:48:58.973Z,3.80
2018-06-29T07:51:29.272Z,3.27
2018-06-29T07:53:59.695Z,2.92
2018-06-29T07:56:29.989Z,2.55
2018-06-29T07:59:00.249Z,2.45
2018-06-29T08:01:30.631Z,2.62
2018-06-29T08:04:01.118Z,2.90
2018-06-29T08:06:31.388Z,2.83
2018-06-29T08:09:01.721Z,2.65
2018-06-29T08:11:32.061Z,2.10
2018-06-29T08:14:02.450Z,2.20
2018-06-29T08:16:32.814Z,2.20
2018-06-29T08:19:03.184Z,2.22
2018-06-29T08:21:33.406Z,2.30
2018-06-29T08:24:03.792Z,2.75
2018-06-29T08:26:34.229Z,2.50
2018-06-29T08:29:04.647Z,1.95
2018-06-29T08:31:35.266Z,2.70
2018-06-29T08:34:05.846Z,2.10
2018-06-29T08:36:36.155Z,2.40
2018-06-29T08:39:09.876Z,2.47
2018-06-29T08:41:40.224Z,2.27
2018-06-29T08:44:10.979Z,2.08
2018-06-29T08:46:42.999Z,1.65
2018-06-29T08:49:13.859Z,2.00
2018-06-29T08:51:44.750Z,1.98
2018-06-29T08:54:16.816Z,1.90
2018-06-29T08:56:47.648Z,1.70
2018-06-29T08:59:18.555Z,1.92
2018-06-29T09:01:49.431Z,1.60
2018-06-29T09:04:20.248Z,1.70
2018-06-29T09:06:50.995Z,1.90
2018-06-29T09:09:23.121Z,1.80
2018-06-29T09:11:54.011Z,2.00
2018-06-29T09:14:24.740Z,2.10
2018-06-29T09:16:55.538Z,2.12
2018-06-29T09:19:27.555Z,1.82
2018-06-29T09:21:58.417Z,2.02
2018-06-29T09:24:29.466Z,2.10
2018-06-29T09:27:00.198Z,4.00
2018-06-29T09:29:30.970Z,1.90
2018-06-29T09:32:01.827Z,2.12
2018-06-29T09:34:32.885Z,1.67
2018-06-29T09:37:04.579Z,1.87
2018-06-29T09:39:35.755Z,1.98
2018-06-29T09:42:06.686Z,1.67
2018-06-29T09:44:37.387Z,2.17
2018-06-29T09:47:08.275Z,2.10
2018-06-29T09:49:38.749Z,2.35
2018-06-29T09:52:09.231Z,2.30
2018-06-29T09:54:39.646Z,2.30
2018-06-29T09:57:10.271Z,2.47
2018-06-29T09:59:40.624Z,2.33
2018-06-29T10:02:11.052Z,2.45
2018-06-29T10:04:41.620Z,2.30
2018-06-29T10:07:11.946Z,1.90
2018-06-29T10:09:42.320Z,2.15
2018-06-29T10:12:12.595Z,2.27
2018-06-29T10:14:43.286Z,2.00
2018-06-29T10:17:15.884Z,2.10
2018-06-29T10:19:46.403Z,1.90
2018-06-29T10:22:16.698Z,1.90
2018-06-29T10:24:47.032Z,1.70
2018-06-29T10:27:17.507Z,1.90
2018-06-29T10:29:47.804Z,1.90
2018-06-29T10:32:18.051Z,2.10
2018-06-29T10:34:52.048Z,2.00
2018-06-29T10:37:22.671Z,1.67
2018-06-29T10:39:52.892Z,2.10
2018-06-29T10:42:23.301Z,2.22
2018-06-29T10:44:53.520Z,2.40
2018-06-29T10:47:23.896Z,2.15
2018-06-29T10:49:54.247Z,2.70
2018-06-29T10:52:24.571Z,2.05
2018-06-29T10:54:54.853Z,1.90
2018-06-29T10:57:25.391Z,1.82
2018-06-29T10:59:55.669Z,1.90
2018-06-29T11:02:25.979Z,2.17
2018-06-29T11:04:56.253Z,2.27
2018-06-29T11:07:26.571Z,2.00
2018-06-29T11:09:58.816Z,2.30
2018-06-29T11:12:29.156Z,2.42
2018-06-29T11:14:59.489Z,2.10
2018-06-29T11:17:29.708Z,2.02
2018-06-29T11:20:00.146Z,2.62
2018-06-29T11:22:30.475Z,1.90
2018-06-29T11:25:00.779Z,2.15
2018-06-29T11:27:31.399Z,2.45
2018-06-29T11:30:01.754Z,2.50
2018-06-29T11:32:32.114Z,2.00
2018-06-29T11:35:02.447Z,2.17
2018-06-29T11:37:32.757Z,2.50
2018-06-29T11:40:03.796Z,2.20
2018-06-29T11:42:35.261Z,2.75
2018-06-29T11:45:06.532Z,3.30
2018-06-29T11:47:43.179Z,3.10
2018-06-29T11:50:13.491Z,1.70
2018-06-29T11:52:43.906Z,1.98
2018-06-29T11:55:14.156Z,2.17
2018-06-29T11:57:44.430Z,1.90
2018-06-29T12:00:14.753Z,2.15
2018-06-29T12:02:44.968Z,2.10
2018-06-29T12:05:15.298Z,2.52
2018-06-29T12:07:45.852Z,2.25
2018-06-29T12:10:16.012Z,2.47
2018-06-29T12:12:46.240Z,2.35
2018-06-29T12:15:16.554Z,2.30
2018-06-29T12:17:46.927Z,2.50
2018-06-29T12:20:17.223Z,2.40
2018-06-29T12:22:47.499Z,2.52
2018-06-29T12:25:17.784Z,2.60
2018-06-29T12:27:48.107Z,2.08
2018-06-29T12:30:18.413Z,2.05
2018-06-29T12:32:48.757Z,2.02
2018-06-29T12:35:18.976Z,2.65
2018-06-29T12:37:49.325Z,2.12
2018-06-29T12:40:19.651Z,2.05
2018-06-29T12:42:49.932Z,2.10
2018-06-29T12:45:20.268Z,2.10
2018-06-29T12:47:50.588Z,2.02
2018-06-29T12:50:21.027Z,1.90
2018-06-29T12:52:51.265Z,1.90
2018-06-29T12:55:21.647Z,1.87
2018-06-29T12:57:52.343Z,1.90
2018-06-29T13:00:22.587Z,1.98
2018-06-29T13:02:52.981Z,1.90
2018-06-29T13:05:24.061Z,2.00
2018-06-29T13:07:54.341Z,1.82
2018-06-29T13:10:24.657Z,1.80
2018-06-29T13:12:55.557Z,1.60
2018-06-29T13:15:25.760Z,1.90
2018-06-29T13:18:08.212Z,2.20
2018-06-29T13:20:49.874Z,1.67
2018-06-29T13:23:20.589Z,2.10
2018-06-29T13:25:52.043Z,1.82
2018-06-29T13:28:22.233Z,2.10
2018-06-29T13:30:52.609Z,1.80
2018-06-29T13:33:22.987Z,1.87
2018-06-29T13:35:53.274Z,1.98
2018-06-29T13:38:23.529Z,1.50
2018-06-29T13:40:53.816Z,1.82
2018-06-29T13:43:24.067Z,1.80
2018-06-29T13:45:54.251Z,1.87
2018-06-29T13:48:24.489Z,1.70
2018-06-29T13:50:56.623Z,1.70
2018-06-29T13:53:28.988Z,2.00
2018-06-29T13:56:01.109Z,1.65
2018-06-29T13:58:41.230Z,1.60
2018-06-29T14:01:11.507Z,1.47
2018-06-29T14:03:42.726Z,2.05
2018-06-29T14:06:14.318Z,2.75
2018-06-29T14:08:47.115Z,1.40
2018-06-29T14:11:19.048Z,1.75
2018-06-29T14:13:49.969Z,1.40
2018-06-29T14:16:21.291Z,1.50
2018-06-29T14:18:51.498Z,1.50
2018-06-29T14:21:21.787Z,1.40
2018-06-29T14:23:52.787Z,1.40
2018-06-29T14:26:23.037Z,1.32
2018-06-29T14:28:53.974Z,1.40
2018-06-29T14:31:24.428Z,1.27
2018-06-29T14:33:54.899Z,1.40
2018-06-29T14:36:26.068Z,1.30
2018-06-29T14:38:56.305Z,1.37
2018-06-29T14:41:26.496Z,1.27
2018-06-29T14:43:56.728Z,1.20
2018-06-29T14:46:28.016Z,1.30
2018-06-29T14:48:58.289Z,1.57
2018-06-29T14:51:28.708Z,1.17
2018-06-29T14:54:00.752Z,1.40
2018-06-29T14:56:31.030Z,1.30
2018-06-29T14:59:01.202Z,1.47
2018-06-29T15:01:31.799Z,1.60
2018-06-29T15:04:02.090Z,1.70
2018-06-29T15:06:33.057Z,1.60
2018-06-29T15:09:03.469Z,1.37
2018-06-29T15:11:33.769Z,1.30
2018-06-29T15:14:04.178Z,1.40
2018-06-29T15:16:34.419Z,1.40
2018-06-29T15:19:04.786Z,1.60
2018-06-29T15:21:35.073Z,1.55
2018-06-29T15:24:05.554Z,1.80
2018-06-29T15:26:35.951Z,1.67
2018-06-29T15:29:06.297Z,1.50
2018-06-29T15:31:36.680Z,1.87
2018-06-29T15:34:06.999Z,1.42
2018-06-29T15:36:37.294Z,1.80
2018-06-29T15:39:13.865Z,1.60
2018-06-29T15:41:49.265Z,1.80
2018-06-29T15:44:20.927Z,1.57
2018-06-29T15:46:51.322Z,1.70
2018-06-29T15:49:24.777Z,1.62
2018-06-29T15:51:55.174Z,1.55
2018-06-29T15:54:25.390Z,1.67
2018-06-29T15:56:55.708Z,1.62
2018-06-29T15:59:26.080Z,1.77
2018-06-29T16:01:56.315Z,1.95
2018-06-29T16:04:26.580Z,1.80
2018-06-29T16:06:59.807Z,1.70
2018-06-29T16:09:30.135Z,1.98
2018-06-29T16:12:00.396Z,2.00
2018-06-29T16:14:30.666Z,1.70
2018-06-29T16:17:00.969Z,2.05
2018-06-29T16:19:31.293Z,1.80
2018-06-29T16:22:01.121Z,2.20
2018-06-29T16:24:31.389Z,2.45
2018-06-29T16:27:01.768Z,2.20
2018-06-29T16:29:32.036Z,2.58
2018-06-29T16:32:02.365Z,2.33
2018-06-29T16:34:32.795Z,3.37
2018-06-29T16:37:03.108Z,2.67
2018-06-29T16:39:33.372Z,2.65
2018-06-29T16:42:03.613Z,2.52
2018-06-29T16:44:33.853Z,2.50
2018-06-29T16:47:04.087Z,2.70
2018-06-29T16:49:34.356Z,2.45
2018-06-29T16:52:04.595Z,2.90
2018-06-29T16:54:34.831Z,3.00
2018-06-29T16:57:05.283Z,2.80
2018-06-29T16:59:35.648Z,3.62
2018-06-29T17:02:05.947Z,3.00
2018-06-29T17:04:36.225Z,3.17
2018-06-29T17:07:06.469Z,2.90
2018-06-29T17:09:36.811Z,3.00
2018-06-29T17:12:07.289Z,3.00
2018-06-29T17:14:37.526Z,3.05
2018-06-29T17:17:07.911Z,3.15
2018-06-29T17:19:38.251Z,3.10
2018-06-29T17:22:08.619Z,3.37
2018-06-29T17:24:38.889Z,2.90
2018-06-29T17:27:09.147Z,3.15
2018-06-29T17:29:39.464Z,3.20
2018-06-29T17:32:09.769Z,3.58
2018-06-29T17:34:40.060Z,3.33
2018-06-29T17:37:10.467Z,3.12
2018-06-29T17:39:40.705Z,3.25
2018-06-29T17:42:11.053Z,3.33
2018-06-29T17:44:41.288Z,3.27
2018-06-29T17:47:11.580Z,3.60
2018-06-29T17:49:41.849Z,3.70
2018-06-29T17:52:12.347Z,3.55
2018-06-29T17:54:42.796Z,3.90
2018-06-29T17:57:13.083Z,3.85
2018-06-29T17:59:43.363Z,3.83
2018-06-29T18:02:13.667Z,5.12
2018-06-29T18:04:44.029Z,3.60
2018-06-29T18:07:14.579Z,4.05
2018-06-29T18:09:44.867Z,3.85
2018-06-29T18:12:15.185Z,4.42
2018-06-29T18:14:45.426Z,3.80
2018-06-29T18:17:15.701Z,3.35
2018-06-29T18:19:45.987Z,3.83
2018-06-29T18:22:16.326Z,3.67
2018-06-29T18:24:46.527Z,3.75
2018-06-29T18:27:16.860Z,3.70
2018-06-29T18:29:47.102Z,3.50
2018-06-29T18:32:41.675Z,4.20
2018-06-29T18:35:16.624Z,3.95
2018-06-29T18:37:48.230Z,4.12
2018-06-29T18:40:19.434Z,3.70
2018-06-29T18:42:50.675Z,4.25
2018-06-29T18:45:21.098Z,4.15
2018-06-29T18:47:50.979Z,4.20
2018-06-29T18:50:21.380Z,4.50
2018-06-29T18:52:51.705Z,4.05
2018-06-29T18:55:21.991Z,4.22
2018-06-29T18:57:52.405Z,4.20
2018-06-29T19:00:22.831Z,4.15
2018-06-29T19:02:53.071Z,4.60
2018-06-29T19:05:23.491Z,4.22
2018-06-29T19:07:53.854Z,4.60
2018-06-29T19:10:24.191Z,4.53
2018-06-29T19:12:56.135Z,4.80
2018-06-29T19:15:27.826Z,4.80
2018-06-29T19:17:58.585Z,4.75
2018-06-29T19:20:29.477Z,4.60
2018-06-29T19:22:59.976Z,5.10
2018-06-29T19:25:30.968Z,4.40
2018-06-29T19:28:01.566Z,4.55
2018-06-29T19:30:32.430Z,4.95
2018-06-29T19:33:02.837Z,4.62
2018-06-29T19:35:33.239Z,4.87
2018-06-29T19:38:03.637Z,5.22
2018-06-29T19:40:33.994Z,5.03
2018-06-29T19:43:04.470Z,5.22
2018-06-29T19:45:37.875Z,5.25
2018-06-29T19:48:08.339Z,5.00
2018-06-29T19:50:38.684Z,4.92
2018-06-29T19:53:09.285Z,5.12
2018-06-29T19:55:42.927Z,4.37
2018-06-29T19:58:13.506Z,4.83
2018-06-29T20:00:44.057Z,5.60
2018-06-29T20:03:14.425Z,6.17
2018-06-29T20:05:45.757Z,5.15
2018-06-29T20:08:16.039Z,5.15
2018-06-29T20:10:46.408Z,4.95
2018-06-29T20:13:16.628Z,4.50
2018-06-29T20:15:46.827Z,5.28
2018-06-29T20:18:17.061Z,5.35
2018-06-29T20:20:47.721Z,5.75
2018-06-29T20:23:18.007Z,4.85
2018-06-29T20:25:48.397Z,5.75
2018-06-29T20:28:18.686Z,5.50
2018-06-29T20:30:48.925Z,5.28
2018-06-29T20:33:19.675Z,5.20
2018-06-29T20:35:50.032Z,5.25
2018-06-29T20:38:21.319Z,5.25
2018-06-29T20:40:51.697Z,4.75
2018-06-29T20:43:24.749Z,5.25
2018-06-29T20:45:57.931Z,4.67
2018-06-29T20:48:28.225Z,4.28
2018-06-29T20:50:58.072Z,4.58
2018-06-29T20:53:28.579Z,5.17
2018-06-29T20:56:00.396Z,4.80
2018-06-29T20:58:30.801Z,4.35
2018-06-29T21:01:01.130Z,4.67
2018-06-29T21:03:32.076Z,5.17
2018-06-29T21:06:02.452Z,4.67
2018-06-29T21:08:32.611Z,4.80
2018-06-29T21:11:03.545Z,4.80
2018-06-29T21:13:33.769Z,4.97
2018-06-29T21:16:04.226Z,4.70
2018-06-29T21:18:34.617Z,5.03
2018-06-29T21:21:05.259Z,5.08
2018-06-29T21:23:58.157Z,5.00
2018-06-29T21:26:57.256Z,4.80
2018-06-29T21:29:34.940Z,4.90
2018-06-29T21:32:31.245Z,5.50
2018-06-29T21:35:46.328Z,5.80
2018-06-29T21:43:56.145Z,5.40
2018-06-29T22:00:56.348Z,5.70
2018-06-29T22:12:08.470Z,5.93
2018-06-29T22:36:35.547Z,7.10
2018-06-29T22:40:36.731Z,6.23
2018-06-29T22:54:50.649Z,7.00
2018-06-29T23:10:33.605Z,7.23
2018-06-29T23:13:36.178Z,7.57
2018-06-29T23:24:25.766Z,7.60
2018-06-29T23:46:54.786Z,7.83
2018-06-29T23:51:27.045Z,7.33
